Time;durP1;ratioP1;P1;durP2;ratioP2;P2;SDS_P1;SDS_P2;PMS_P1;PMS_P2;Temp;Humidity;BMP_temperature;BMP_pressure;BME280_temperature;BME280_humidity;BME280_pressure;Samples;Min_cycle;Max_cycle;Signal;HPM_P1;HPM_P2
2021/03/31 00:00:30;;;;;;;8.10;7.37;;;;;;;5.44;74.04;99091.75;5001333;28;20209;-68
2021/03/31 00:02:59;;;;;;;7.83;7.03;;;;;;;5.44;74.52;99086.50;4983996;28;20236;-67
2021/03/31 00:05:27;;;;;;;8.23;7.23;;;;;;;5.60;73.26;99087.13;5001066;28;20216;-66
2021/03/31 00:07:54;;;;;;;8.90;7.60;;;;;;;5.67;72.75;99082.28;5001600;28;20587;-66
2021/03/31 00:10:24;;;;;;;8.73;6.87;;;;;;;5.60;72.87;99088.91;4996049;28;20781;-67
2021/03/31 00:12:51;;;;;;;8.03;7.33;;;;;;;5.62;72.67;99081.75;5002079;28;20609;-66
2021/03/31 00:15:18;;;;;;;8.17;7.37;;;;;;;5.42;73.51;99075.25;5001351;28;20554;-66
2021/03/31 00:17:45;;;;;;;8.83;7.40;;;;;;;5.41;73.78;99081.44;5001461;28;20219;-67
2021/03/31 00:20:15;;;;;;;10.83;7.60;;;;;;;5.44;73.25;99066.28;4997341;28;20262;-66
2021/03/31 00:22:43;;;;;;;10.70;7.30;;;;;;;5.25;74.68;99074.56;5000427;28;20221;-67
2021/03/31 00:25:11;;;;;;;7.23;6.60;;;;;;;5.35;74.40;99073.03;5001454;28;20695;-66
2021/03/31 00:27:39;;;;;;;8.27;6.87;;;;;;;5.30;74.51;99069.88;5001190;28;20296;-66
2021/03/31 00:30:07;;;;;;;8.70;6.67;;;;;;;5.32;74.15;99069.75;5001087;28;20979;-68
2021/03/31 00:32:34;;;;;;;11.47;7.20;;;;;;;5.24;74.37;99065.00;5001408;28;20972;-67
2021/03/31 00:35:04;;;;;;;9.07;7.67;;;;;;;5.00;75.21;99060.47;5000594;28;20292;-67
2021/03/31 00:37:32;;;;;;;8.00;7.20;;;;;;;5.00;75.47;99064.88;5000696;28;20200;-67
2021/03/31 00:39:59;;;;;;;7.77;6.57;;;;;;;5.02;75.02;99066.47;5000775;28;20506;-68
2021/03/31 00:42:26;;;;;;;9.30;7.53;;;;;;;5.15;74.51;99055.97;4997904;28;20229;-68
2021/03/31 00:44:53;;;;;;;7.63;6.87;;;;;;;5.03;74.72;99057.63;5003225;28;20216;-66
2021/03/31 00:47:20;;;;;;;8.33;6.97;;;;;;;4.87;75.86;99059.59;5004333;28;20652;-65
2021/03/31 00:49:47;;;;;;;12.10;7.33;;;;;;;4.69;76.97;99070.38;5004475;28;20629;-67
2021/03/31 00:52:14;;;;;;;8.27;6.83;;;;;;;4.82;75.93;99065.16;5004976;28;20229;-68
2021/03/31 00:54:42;;;;;;;7.20;6.60;;;;;;;4.72;75.99;99054.41;5003855;28;20205;-67
2021/03/31 00:57:09;;;;;;;8.93;7.07;;;;;;;4.65;76.20;99058.38;5004963;28;20213;-67
2021/03/31 00:59:36;;;;;;;7.80;6.93;;;;;;;4.55;76.33;99045.00;5004897;28;20212;-67
2021/03/31 01:02:04;;;;;;;7.57;6.77;;;;;;;4.33;78.44;99045.56;5003472;28;20256;-67
2021/03/31 01:04:31;;;;;;;6.80;6.10;;;;;;;4.39;77.97;99053.03;5002040;28;20201;-67
2021/03/31 01:06:58;;;;;;;8.77;6.60;;;;;;;4.52;77.37;99045.22;5003159;28;20213;-67
2021/03/31 01:09:25;;;;;;;9.60;7.13;;;;;;;4.44;77.74;99039.63;5004887;28;20259;-67
2021/03/31 01:12:00;;;;;;;8.97;6.80;;;;;;;4.42;77.54;99044.13;5003947;28;20209;-68
2021/03/31 01:14:32;;;;;;;7.10;6.40;;;;;;;4.17;79.20;99038.66;5000817;28;20672;-68
2021/03/31 01:17:04;;;;;;;7.80;7.00;;;;;;;4.19;79.33;99039.41;4996679;28;20209;-66
2021/03/31 01:19:57;;;;;;;10.37;7.23;;;;;;;4.30;78.38;99040.50;5001671;28;20205;-65
2021/03/31 01:22:46;;;;;;;7.17;6.47;;;;;;;4.49;77.54;99032.28;5004153;28;20220;-66
2021/03/31 01:25:16;;;;;;;7.60;6.90;;;;;;;4.42;77.57;99031.00;5003284;28;20759;-67
2021/03/31 01:27:55;;;;;;;7.90;7.20;;;;;;;4.32;78.66;99034.19;5004323;28;20216;-67
2021/03/31 01:30:28;;;;;;;8.33;7.43;;;;;;;4.35;78.39;99023.50;4999874;28;20441;-66
2021/03/31 01:33:32;;;;;;;7.80;7.00;;;;;;;4.35;78.33;99026.13;5003220;28;20228;-65
2021/03/31 01:36:00;;;;;;;7.80;7.00;;;;;;;4.24;79.14;99033.84;4999575;28;20212;-67
2021/03/31 01:38:28;;;;;;;8.03;7.37;;;;;;;4.36;78.59;99026.97;5002540;28;20201;-66
2021/03/31 01:40:56;;;;;;;8.20;7.40;;;;;;;4.21;78.97;99031.44;5004115;28;20205;-64
2021/03/31 01:43:24;;;;;;;11.27;7.17;;;;;;;4.04;80.48;99028.09;5003390;28;20234;-67
2021/03/31 01:45:54;;;;;;;7.90;7.10;;;;;;;3.98;80.63;99023.25;5003927;28;20225;-67
2021/03/31 01:48:24;;;;;;;8.17;7.13;;;;;;;3.89;80.90;99026.44;5003299;28;20215;-67
2021/03/31 01:50:53;;;;;;;8.30;7.50;;;;;;;3.88;80.93;99022.13;4999642;28;20212;-68
2021/03/31 01:53:21;;;;;;;8.20;6.43;;;;;;;3.76;82.38;99018.47;5002714;28;20406;-68
2021/03/31 01:55:49;;;;;;;8.37;7.57;;;;;;;3.66;82.22;99025.25;5001469;28;20231;-67
2021/03/31 01:58:18;;;;;;;6.60;5.70;;;;;;;3.66;82.74;99013.00;4998590;28;20212;-67
2021/03/31 02:00:46;;;;;;;8.63;7.83;;;;;;;3.65;82.03;99026.19;5002292;28;20208;-66
2021/03/31 02:03:15;;;;;;;8.03;7.23;;;;;;;3.94;80.82;99016.47;5002614;28;20235;-65
2021/03/31 02:05:42;;;;;;;7.17;6.67;;;;;;;3.94;80.82;99016.47;5001360;28;20243;-67
2021/03/31 02:08:09;;;;;;;7.93;6.93;;;;;;;3.98;80.67;99014.53;5003180;28;20212;-67
2021/03/31 02:10:38;;;;;;;7.63;6.93;;;;;;;3.82;81.44;99009.41;4999070;28;20209;-66
2021/03/31 02:13:06;;;;;;;8.93;7.20;;;;;;;3.61;82.56;99010.63;5002321;28;20315;-67
2021/03/31 02:15:34;;;;;;;7.93;7.23;;;;;;;3.58;82.77;99005.59;5001695;28;20205;-66
2021/03/31 02:18:06;;;;;;;6.70;6.07;;;;;;;3.58;83.02;99007.34;5002138;28;20558;-67
2021/03/31 02:20:34;;;;;;;7.13;6.47;;;;;;;3.46;84.14;99004.56;5002376;28;20581;-66
2021/03/31 02:23:01;;;;;;;7.20;6.60;;;;;;;3.49;83.49;99003.53;4997961;28;20764;-66
2021/03/31 02:25:29;;;;;;;8.53;6.57;;;;;;;3.42;83.92;99002.22;4999676;28;20684;-68
2021/03/31 02:27:57;;;;;;;8.00;7.20;;;;;;;3.39;84.69;98998.00;5001754;28;20514;-66
2021/03/31 02:30:26;;;;;;;6.80;6.20;;;;;;;3.58;82.92;98996.88;4997457;28;20324;-67
2021/03/31 02:32:55;;;;;;;7.83;6.77;;;;;;;3.58;83.51;99004.72;4999514;28;20232;-66
2021/03/31 02:35:23;;;;;;;8.80;7.37;;;;;;;3.58;82.38;99000.34;5000510;28;20212;-66
2021/03/31 02:37:52;;;;;;;7.40;6.70;;;;;;;3.45;83.38;98997.63;4999358;28;20417;-67
2021/03/31 02:40:20;;;;;;;9.57;6.67;;;;;;;3.36;84.00;98999.97;5002311;28;20665;-67
2021/03/31 02:42:49;;;;;;;6.73;6.03;;;;;;;3.27;84.64;98993.53;4998634;28;20232;-67
2021/03/31 02:45:18;;;;;;;10.80;6.93;;;;;;;3.35;83.88;98999.13;5003487;28;20220;-66
2021/03/31 02:47:46;;;;;;;6.80;6.20;;;;;;;3.41;83.60;98997.91;5003037;28;20284;-67
2021/03/31 02:50:15;;;;;;;7.73;7.13;;;;;;;3.38;83.94;98998.09;5001306;28;21569;-67
2021/03/31 02:52:44;;;;;;;6.77;6.03;;;;;;;3.38;83.14;98985.00;5000844;28;20221;-66
2021/03/31 02:55:12;;;;;;;8.27;6.80;;;;;;;3.31;83.84;98987.16;5001587;28;20197;-67
2021/03/31 02:57:39;;;;;;;8.33;6.40;;;;;;;3.42;83.90;98986.50;4998619;28;20205;-66
2021/03/31 03:00:08;;;;;;;8.53;6.93;;;;;;;3.29;84.79;98983.78;4997481;28;20208;-63
2021/03/31 03:02:37;;;;;;;6.90;6.30;;;;;;;3.24;85.02;98985.84;4997867;28;20337;-63
2021/03/31 03:05:07;;;;;;;6.90;6.33;;;;;;;3.36;83.73;98984.25;5000684;28;20240;-65
2021/03/31 03:07:34;;;;;;;6.97;6.40;;;;;;;3.24;84.84;98983.22;4999084;28;20209;-63
2021/03/31 03:10:03;;;;;;;7.47;6.20;;;;;;;3.25;84.82;98977.88;4998929;28;20224;-65
2021/03/31 03:12:30;;;;;;;6.87;6.27;;;;;;;3.24;85.84;98975.38;4999727;28;20489;-70
2021/03/31 03:14:58;;;;;;;6.57;5.93;;;;;;;3.37;84.71;98976.31;5001793;28;20589;-67
2021/03/31 03:17:25;;;;;;;7.30;6.67;;;;;;;3.37;84.38;98975.44;5002852;28;20307;-69
2021/03/31 03:19:53;;;;;;;9.30;6.10;;;;;;;3.22;85.08;98970.22;5000594;28;20201;-67
2021/03/31 03:22:19;;;;;;;6.53;6.03;;;;;;;3.17;85.80;98965.25;5000475;28;20378;-68
2021/03/31 03:24:48;;;;;;;7.63;6.83;;;;;;;3.22;85.44;98970.22;5002487;28;20240;-67
2021/03/31 03:27:16;;;;;;;6.33;5.73;;;;;;;3.12;84.85;98964.69;5000580;28;20212;-68
2021/03/31 03:29:44;;;;;;;7.10;6.43;;;;;;;3.17;85.36;98962.63;5001218;28;20224;-67
2021/03/31 03:32:12;;;;;;;7.17;6.57;;;;;;;3.12;85.10;98966.47;5001094;28;20323;-67
2021/03/31 03:34:39;;;;;;;7.83;5.63;;;;;;;3.04;86.07;98961.69;4998931;28;20208;-68
2021/03/31 03:37:07;;;;;;;7.37;6.67;;;;;;;2.98;86.56;98967.31;5001814;28;20277;-66
2021/03/31 03:39:34;;;;;;;6.63;6.10;;;;;;;2.85;87.40;98960.19;4993870;28;20217;-68
2021/03/31 03:42:01;;;;;;;7.47;6.63;;;;;;;3.04;87.72;98966.94;5001030;28;20239;-69
2021/03/31 03:44:30;;;;;;;6.90;6.40;;;;;;;3.14;87.17;98972.47;5000447;28;20217;-68
2021/03/31 03:46:59;;;;;;;6.23;5.73;;;;;;;3.20;85.54;98972.09;4997228;28;20216;-68
2021/03/31 03:49:26;;;;;;;7.53;6.80;;;;;;;3.00;87.12;98971.50;4999015;28;20740;-69
2021/03/31 03:51:53;;;;;;;8.00;6.17;;;;;;;2.81;86.95;98974.38;5002063;28;20291;-69
2021/03/31 03:54:21;;;;;;;7.20;6.50;;;;;;;2.72;88.68;98974.91;5001697;28;20348;-69
2021/03/31 03:56:49;;;;;;;9.97;6.80;;;;;;;2.59;88.75;98969.53;4999454;28;20697;-68
2021/03/31 03:59:20;;;;;;;7.33;6.73;;;;;;;2.59;89.79;98967.78;5000915;28;20212;-69
2021/03/31 04:01:47;;;;;;;6.43;5.93;;;;;;;2.75;89.15;98969.50;5001652;28;20213;-68
2021/03/31 04:04:14;;;;;;;6.87;6.27;;;;;;;2.80;88.59;98970.06;4998877;28;20205;-69
2021/03/31 04:06:41;;;;;;;7.67;6.50;;;;;;;2.83;88.86;98967.25;4999703;28;20213;-66
2021/03/31 04:09:09;;;;;;;8.67;6.53;;;;;;;2.89;88.23;98968.69;5000084;28;20527;-67
2021/03/31 04:11:38;;;;;;;7.07;6.37;;;;;;;2.79;87.72;98960.53;5000932;28;20205;-65
2021/03/31 04:14:06;;;;;;;7.17;6.47;;;;;;;2.75;88.60;98966.88;5000829;28;20584;-68
2021/03/31 04:16:34;;;;;;;7.80;6.30;;;;;;;2.72;88.25;98961.81;5000922;28;20211;-68
2021/03/31 04:19:03;;;;;;;6.70;6.10;;;;;;;2.85;88.21;98964.56;5002618;28;20292;-68
2021/03/31 04:21:31;;;;;;;7.23;6.63;;;;;;;2.72;89.22;98969.69;5004854;28;20661;-69
2021/03/31 04:23:58;;;;;;;7.07;6.47;;;;;;;2.55;90.43;98963.66;5002707;28;20335;-69
2021/03/31 04:26:26;;;;;;;6.53;5.90;;;;;;;2.70;89.39;98975.00;5003553;28;20681;-69
2021/03/31 04:28:54;;;;;;;7.27;6.57;;;;;;;2.67;89.30;98977.81;5004299;28;20224;-69
2021/03/31 04:31:22;;;;;;;8.33;6.97;;;;;;;2.54;90.35;98971.59;5002611;28;20678;-66
2021/03/31 04:33:50;;;;;;;7.03;6.53;;;;;;;2.54;89.57;98971.59;4982003;28;20664;-67
2021/03/31 04:36:17;;;;;;;7.63;6.10;;;;;;;2.52;89.25;98966.47;5004848;28;20204;-66
2021/03/31 04:38:45;;;;;;;8.47;6.20;;;;;;;2.42;89.98;98975.75;5007488;28;20211;-67
2021/03/31 04:41:12;;;;;;;6.80;6.10;;;;;;;2.53;89.06;98968.16;5002909;28;20235;-69
2021/03/31 04:43:39;;;;;;;7.43;6.23;;;;;;;2.57;89.00;98963.56;5003910;28;20228;-67
2021/03/31 04:46:08;;;;;;;7.97;6.83;;;;;;;2.46;89.01;98967.66;5004898;28;20700;-66
2021/03/31 04:48:35;;;;;;;7.33;6.40;;;;;;;2.46;90.21;98964.16;5002763;28;20595;-68
2021/03/31 04:51:03;;;;;;;7.30;6.40;;;;;;;2.48;89.40;98969.34;4999546;28;20229;-65
2021/03/31 04:53:30;;;;;;;9.93;7.20;;;;;;;2.34;89.90;98972.72;5009007;28;20247;-69
2021/03/31 04:55:57;;;;;;;9.90;6.37;;;;;;;2.36;90.51;98974.34;5001158;28;20220;-65
2021/03/31 04:58:25;;;;;;;7.07;6.47;;;;;;;2.25;91.10;98974.94;5003197;28;20580;-68
2021/03/31 05:00:52;;;;;;;8.00;6.57;;;;;;;2.34;90.92;98975.34;5003342;28;20214;-67
2021/03/31 05:03:20;;;;;;;7.50;6.73;;;;;;;2.43;90.42;98965.22;5000800;28;20620;-66
2021/03/31 05:05:47;;;;;;;7.47;6.77;;;;;;;2.51;89.73;98964.78;5005851;28;20212;-68
2021/03/31 05:08:14;;;;;;;9.47;6.60;;;;;;;2.45;91.20;98960.72;5001733;28;20236;-67
2021/03/31 05:10:41;;;;;;;7.73;7.03;;;;;;;2.45;91.44;98960.72;5003455;28;20654;-67
2021/03/31 05:13:08;;;;;;;8.70;7.50;;;;;;;2.54;90.71;98955.88;5002596;28;20249;-66
2021/03/31 05:15:36;;;;;;;7.70;6.97;;;;;;;2.48;91.89;98962.34;5003866;28;20211;-68
2021/03/31 05:18:04;;;;;;;6.60;6.03;;;;;;;2.62;91.05;98963.31;5003358;28;20312;-67
2021/03/31 05:20:32;;;;;;;9.00;6.47;;;;;;;2.65;90.43;98963.13;5004776;28;20720;-67
2021/03/31 05:22:59;;;;;;;6.67;6.07;;;;;;;2.64;90.27;98957.03;5003356;28;20232;-69
2021/03/31 05:25:26;;;;;;;7.50;6.70;;;;;;;2.65;89.43;98956.13;5002827;28;20209;-67
2021/03/31 05:27:54;;;;;;;6.57;6.07;;;;;;;2.61;90.11;98951.97;5001421;28;20589;-68
2021/03/31 05:30:22;;;;;;;6.47;5.90;;;;;;;2.74;90.21;98955.56;5000055;28;20228;-67
2021/03/31 05:32:49;;;;;;;6.77;6.27;;;;;;;2.85;89.18;98957.56;4998646;28;20408;-66
2021/03/31 05:35:16;;;;;;;7.60;6.90;;;;;;;2.84;89.17;98950.66;5001714;28;20716;-69
2021/03/31 05:37:45;;;;;;;8.27;6.80;;;;;;;2.81;88.58;98950.81;5004152;28;20244;-67
2021/03/31 05:40:12;;;;;;;8.27;6.70;;;;;;;2.90;88.95;98949.41;5001616;28;20490;-68
2021/03/31 05:42:39;;;;;;;10.60;7.20;;;;;;;2.88;89.42;98949.53;5001837;28;20233;-68
2021/03/31 05:45:07;;;;;;;8.30;6.40;;;;;;;3.01;89.22;98946.16;5000101;28;20653;-65
2021/03/31 05:47:36;;;;;;;6.87;6.37;;;;;;;2.96;89.04;98945.59;4998405;28;20312;-68
2021/03/31 05:50:05;;;;;;;9.87;7.63;;;;;;;3.08;89.04;98951.88;5002079;28;20224;-69
2021/03/31 05:52:33;;;;;;;7.17;6.57;;;;;;;3.14;87.81;98952.34;5002703;28;20725;-67
2021/03/31 05:55:01;;;;;;;7.47;6.87;;;;;;;3.32;86.87;98946.91;5000579;28;20270;-68
2021/03/31 05:57:32;;;;;;;7.07;6.30;;;;;;;3.39;86.54;98942.97;5001567;28;20205;-68
2021/03/31 06:00:00;;;;;;;10.63;7.70;;;;;;;3.40;87.04;98939.41;5000449;28;20211;-68
2021/03/31 06:02:29;;;;;;;8.23;6.57;;;;;;;3.59;85.09;98938.25;5001959;28;20589;-70
2021/03/31 06:04:56;;;;;;;9.40;7.83;;;;;;;3.73;84.69;98935.63;5004219;28;20209;-69
2021/03/31 06:07:23;;;;;;;9.80;6.77;;;;;;;3.86;84.44;98943.56;5001837;28;20209;-69
2021/03/31 06:10:11;;;;;;;7.43;6.77;;;;;;;4.01;83.80;98938.25;5003178;28;20229;-71
2021/03/31 06:12:44;;;;;;;8.17;7.30;;;;;;;4.03;83.56;98945.09;4996571;28;20229;-68
2021/03/31 06:15:14;;;;;;;6.93;6.33;;;;;;;4.18;82.96;98945.03;5000938;28;20249;-70
2021/03/31 06:17:46;;;;;;;8.10;7.40;;;;;;;4.36;82.49;98937.75;4999201;28;20580;-70
2021/03/31 06:20:13;;;;;;;7.70;6.67;;;;;;;4.52;81.42;98947.22;5000636;28;20600;-67
2021/03/31 06:22:52;;;;;;;8.47;7.30;;;;;;;4.67;81.02;98940.09;5000827;28;20268;-69
2021/03/31 06:25:22;;;;;;;9.37;7.73;;;;;;;4.93;80.50;98941.00;5000513;28;20307;-69
2021/03/31 06:27:53;;;;;;;7.83;7.03;;;;;;;5.33;80.43;98942.63;5002578;28;20211;-69
2021/03/31 06:30:22;;;;;;;8.30;7.50;;;;;;;5.60;77.93;98934.59;5000710;28;20233;-68
2021/03/31 06:32:49;;;;;;;10.47;6.90;;;;;;;5.81;75.72;98944.53;5000258;28;20617;-69
2021/03/31 06:35:18;;;;;;;8.73;7.33;;;;;;;5.90;75.67;98949.13;5000529;28;20208;-69
2021/03/31 06:37:45;;;;;;;8.57;7.77;;;;;;;6.22;74.99;98945.97;4998971;28;20263;-69
2021/03/31 06:40:31;;;;;;;11.23;6.97;;;;;;;6.45;73.20;98945.22;4999084;28;20216;-69
2021/03/31 06:43:08;;;;;;;8.37;7.50;;;;;;;6.59;72.59;98937.13;4996427;28;20770;-67
2021/03/31 06:45:38;;;;;;;8.17;7.40;;;;;;;6.75;71.17;98938.63;5001464;28;20209;-69
2021/03/31 06:48:07;;;;;;;9.53;6.30;;;;;;;6.95;70.97;98943.19;5000533;28;20659;-69
2021/03/31 06:50:37;;;;;;;8.13;6.50;;;;;;;7.27;69.61;98935.56;5000034;28;20300;-67
2021/03/31 06:53:05;;;;;;;9.33;7.23;;;;;;;7.52;67.47;98932.69;4998080;28;20224;-68
2021/03/31 06:55:34;;;;;;;7.10;6.50;;;;;;;7.59;67.60;98933.03;4999214;28;20215;-69
2021/03/31 06:58:02;;;;;;;7.73;6.60;;;;;;;7.95;65.19;98933.69;4998657;28;20296;-69
2021/03/31 07:00:31;;;;;;;7.33;6.13;;;;;;;8.11;64.35;98929.81;5000085;28;20570;-68
2021/03/31 07:03:00;;;;;;;6.20;5.80;;;;;;;8.50;62.76;98921.38;4997987;28;20284;-67
2021/03/31 07:05:28;;;;;;;11.60;6.53;;;;;;;8.61;61.23;98923.13;5000244;28;20215;-70
2021/03/31 07:08:06;;;;;;;8.77;5.47;;;;;;;8.78;60.52;98925.19;5001089;28;20212;-67
2021/03/31 07:10:45;;;;;;;6.90;6.17;;;;;;;8.92;61.43;98929.31;5004636;28;20327;-67
2021/03/31 07:13:25;;;;;;;6.57;5.40;;;;;;;9.09;60.99;98916.47;5003250;28;20327;-68
2021/03/31 07:15:53;;;;;;;6.57;6.07;;;;;;;9.47;59.29;98917.59;4998475;28;20197;-67
2021/03/31 07:18:22;;;;;;;7.27;6.13;;;;;;;9.46;59.60;98915.91;4998132;28;20205;-68
2021/03/31 07:20:49;;;;;;;10.03;6.13;;;;;;;9.83;58.71;98917.97;4996634;28;20212;-67
2021/03/31 07:23:17;;;;;;;7.83;5.83;;;;;;;9.88;58.08;98920.22;4997581;28;20461;-69
2021/03/31 07:25:44;;;;;;;6.80;6.20;;;;;;;10.15;56.26;98916.03;4998299;28;20236;-69
2021/03/31 07:28:16;;;;;;;8.73;7.03;;;;;;;10.09;56.20;98916.59;5000423;28;20209;-69
2021/03/31 07:30:44;;;;;;;6.73;6.10;;;;;;;10.21;55.21;98914.66;4997794;28;20223;-70
2021/03/31 07:33:17;;;;;;;6.50;6.00;;;;;;;10.11;56.35;98915.50;4998166;28;20244;-70
2021/03/31 07:35:45;;;;;;;6.40;5.80;;;;;;;10.16;57.18;98919.53;4998129;28;20208;-69
2021/03/31 07:38:15;;;;;;;6.17;5.50;;;;;;;10.31;56.91;98914.66;4999786;28;20205;-68
2021/03/31 07:40:43;;;;;;;8.00;6.33;;;;;;;10.47;57.17;98912.31;4999312;28;20205;-67
2021/03/31 07:43:13;;;;;;;8.13;7.10;;;;;;;10.81;55.84;98914.50;5002429;28;20236;-65
2021/03/31 07:45:43;;;;;;;6.30;5.77;;;;;;;10.83;55.17;98914.38;4999654;28;20215;-66
2021/03/31 07:48:11;;;;;;;7.13;5.90;;;;;;;10.98;55.43;98920.03;4999229;28;20621;-65
2021/03/31 07:50:38;;;;;;;7.17;6.47;;;;;;;11.16;54.76;98909.50;5001040;28;20495;-66
2021/03/31 07:53:07;;;;;;;10.80;6.63;;;;;;;11.48;53.51;98918.88;4998532;28;20236;-68
2021/03/31 07:55:40;;;;;;;6.87;6.00;;;;;;;11.64;53.66;98912.91;4999349;28;20205;-66
2021/03/31 07:58:28;;;;;;;8.53;6.80;;;;;;;11.78;51.94;98911.59;4997793;28;20237;-69
2021/03/31 08:01:16;;;;;;;6.97;6.10;;;;;;;11.75;52.55;98911.88;4998513;28;20614;-69
2021/03/31 08:03:43;;;;;;;9.30;6.70;;;;;;;11.78;52.33;98911.59;4996107;28;20705;-69
2021/03/31 08:06:13;;;;;;;10.03;6.37;;;;;;;11.93;51.98;98911.91;4999883;28;20209;-67
2021/03/31 08:09:02;;;;;;;8.57;7.33;;;;;;;11.98;51.52;98914.13;4999439;28;20589;-70
2021/03/31 08:12:02;;;;;;;8.10;6.60;;;;;;;12.28;50.67;98912.09;4997578;28;20757;-68
2021/03/31 08:14:46;;;;;;;7.00;6.23;;;;;;;12.28;50.27;98909.44;4997215;28;20205;-67
2021/03/31 08:17:34;;;;;;;6.53;5.93;;;;;;;12.60;50.34;98900.06;5000728;28;20429;-70
2021/03/31 08:20:03;;;;;;;6.67;6.07;;;;;;;12.92;49.29;98900.47;5000338;28;20296;-69
2021/03/31 08:22:35;;;;;;;6.90;6.10;;;;;;;13.22;47.45;98893.81;4998392;28;20988;-66
2021/03/31 08:25:19;;;;;;;8.60;6.57;;;;;;;13.12;48.34;98896.56;4999205;28;20204;-68
2021/03/31 08:28:03;;;;;;;7.57;6.73;;;;;;;13.20;48.86;98892.28;4997503;28;20753;-69
2021/03/31 08:30:32;;;;;;;7.77;6.37;;;;;;;13.40;47.99;98896.38;4999620;28;20267;-69
2021/03/31 08:33:00;;;;;;;9.23;5.83;;;;;;;13.39;48.30;98893.88;5002559;28;20251;-69
2021/03/31 08:35:28;;;;;;;10.30;7.03;;;;;;;13.39;47.77;98893.88;4999797;28;20585;-68
2021/03/31 08:37:56;;;;;;;7.70;6.93;;;;;;;13.66;46.62;98892.84;4997866;28;20554;-66
2021/03/31 08:40:28;;;;;;;11.10;7.23;;;;;;;13.88;46.83;98891.41;4998471;28;20205;-69
2021/03/31 08:43:04;;;;;;;7.63;6.87;;;;;;;13.92;46.73;98885.75;4998962;28;20236;-71
2021/03/31 08:45:34;;;;;;;8.20;6.30;;;;;;;14.08;46.07;98887.63;4999455;28;20821;-66
2021/03/31 08:48:01;;;;;;;9.20;6.60;;;;;;;14.21;46.01;98882.63;4999628;28;20300;-68
2021/03/31 08:50:34;;;;;;;8.60;5.87;;;;;;;14.46;45.43;98885.31;4998402;28;20232;-70
2021/03/31 08:53:03;;;;;;;10.37;7.40;;;;;;;14.63;44.40;98880.78;4999526;28;20261;-67
2021/03/31 08:55:32;;;;;;;7.80;6.60;;;;;;;14.74;44.20;98875.13;4999353;28;20577;-69
2021/03/31 08:58:00;;;;;;;8.37;6.80;;;;;;;14.97;43.73;98878.91;5001461;28;20239;-69
2021/03/31 09:00:27;;;;;;;8.70;6.60;;;;;;;15.29;42.71;98882.50;5002531;28;20205;-69
2021/03/31 09:03:05;;;;;;;9.83;6.83;;;;;;;15.41;42.83;98874.94;4998153;28;20563;-69
2021/03/31 09:05:32;;;;;;;9.07;6.43;;;;;;;15.70;41.40;98878.78;5000791;28;20208;-69
2021/03/31 09:08:00;;;;;;;8.43;6.17;;;;;;;15.81;41.44;98870.41;5003469;28;20215;-70
2021/03/31 09:10:51;;;;;;;9.00;6.40;;;;;;;16.00;40.56;98866.47;5001168;28;20267;-68
2021/03/31 09:13:29;;;;;;;6.80;6.17;;;;;;;16.07;40.52;98861.22;5004396;28;20271;-70
2021/03/31 09:15:57;;;;;;;8.17;6.83;;;;;;;16.14;39.62;98859.50;5001473;28;20295;-67
2021/03/31 09:18:26;;;;;;;9.27;7.07;;;;;;;16.45;39.10;98847.88;5003036;28;20224;-68
2021/03/31 09:20:53;;;;;;;8.83;6.90;;;;;;;16.51;39.29;98854.34;5003992;28;20282;-70
2021/03/31 09:23:25;;;;;;;10.13;7.07;;;;;;;16.60;37.82;98855.09;5002620;28;20744;-71
2021/03/31 09:26:00;;;;;;;7.67;6.80;;;;;;;16.69;37.41;98853.19;5002914;28;20300;-69
2021/03/31 09:28:27;;;;;;;8.47;7.57;;;;;;;16.99;37.26;98846.03;5004986;28;20201;-67
2021/03/31 09:30:57;;;;;;;7.63;6.83;;;;;;;16.86;37.37;98845.81;5000623;28;20229;-69
2021/03/31 09:33:27;;;;;;;10.07;7.27;;;;;;;17.15;36.05;98838.81;5002649;28;20251;-70
2021/03/31 09:36:14;;;;;;;9.73;7.47;;;;;;;17.08;36.71;98836.06;5002430;28;20286;-69
2021/03/31 09:38:46;;;;;;;7.37;6.67;;;;;;;17.18;37.53;98833.94;5003085;28;20209;-70
2021/03/31 09:41:14;;;;;;;7.93;6.50;;;;;;;17.53;36.73;98827.94;5002174;28;20697;-69
2021/03/31 09:43:42;;;;;;;10.27;7.23;;;;;;;17.56;35.91;98829.44;5003118;28;20758;-70
2021/03/31 09:46:10;;;;;;;8.07;6.63;;;;;;;17.79;34.94;98822.03;5003193;28;20224;-66
2021/03/31 09:48:38;;;;;;;8.53;7.03;;;;;;;17.72;34.84;98817.66;5003672;28;20201;-69
2021/03/31 09:51:13;;;;;;;10.27;7.13;;;;;;;17.82;34.15;98820.84;5002741;28;20802;-70
2021/03/31 09:53:41;;;;;;;8.77;7.23;;;;;;;17.70;34.24;98811.66;5002579;28;20509;-71
2021/03/31 09:56:10;;;;;;;7.00;6.30;;;;;;;17.87;34.96;98807.69;5004298;28;20209;-68
2021/03/31 09:58:39;;;;;;;7.63;6.77;;;;;;;18.08;34.55;98809.56;5004237;28;20208;-70
2021/03/31 10:01:11;;;;;;;6.70;6.10;;;;;;;18.36;34.17;98805.25;5003117;28;20506;-70
2021/03/31 10:03:40;;;;;;;8.53;6.93;;;;;;;18.63;32.00;98803.59;5003328;28;20344;-69
2021/03/31 10:06:21;;;;;;;7.97;6.70;;;;;;;18.80;31.23;98808.63;5002335;28;20205;-70
2021/03/31 10:08:50;;;;;;;9.73;7.10;;;;;;;18.86;31.12;98798.97;5003443;28;20217;-69
2021/03/31 10:11:31;;;;;;;10.40;7.97;;;;;;;18.98;30.35;98799.28;5002155;28;20555;-70
2021/03/31 10:14:01;;;;;;;8.03;7.13;;;;;;;18.90;31.10;98800.22;4999198;28;20229;-69
2021/03/31 10:16:37;;;;;;;9.10;7.73;;;;;;;18.98;31.45;98800.09;5002906;28;20208;-70
2021/03/31 10:19:07;;;;;;;8.57;7.87;;;;;;;19.21;29.67;98794.41;4996535;28;20201;-69
2021/03/31 10:21:36;;;;;;;9.43;8.47;;;;;;;19.26;30.07;98791.13;5000435;28;20236;-70
2021/03/31 10:24:05;;;;;;;11.17;8.27;;;;;;;19.32;30.26;98790.31;4999959;28;20270;-71
2021/03/31 10:26:48;;;;;;;8.87;7.97;;;;;;;19.13;30.76;98793.75;4998057;28;20231;-71
2021/03/31 10:29:36;;;;;;;9.77;8.77;;;;;;;19.26;30.63;98784.91;4999421;28;20632;-72
2021/03/31 10:32:24;;;;;;;10.17;8.10;;;;;;;19.49;30.14;98782.72;5003102;28;20367;-68
2021/03/31 10:34:53;;;;;;;10.50;7.67;;;;;;;19.70;30.17;98780.94;4999803;28;20205;-70
2021/03/31 10:37:27;;;;;;;10.40;8.37;;;;;;;19.93;29.50;98777.03;5000154;28;20201;-69
2021/03/31 10:49:10;;;;;;;10.93;8.20;;;;;;;20.53;28.16;98766.25;5001820;28;20211;-66
2021/03/31 10:51:50;;;;;;;8.47;7.53;;;;;;;20.69;28.00;98758.75;5002656;28;20224;-66
2021/03/31 10:54:19;;;;;;;8.80;7.43;;;;;;;20.57;27.20;98763.97;5000266;28;20296;-67
2021/03/31 10:56:53;;;;;;;7.87;7.17;;;;;;;20.63;27.18;98754.19;5001277;28;20667;-67
2021/03/31 10:59:20;;;;;;;7.13;6.47;;;;;;;21.09;24.24;98755.97;5002186;28;20208;-67
2021/03/31 11:01:47;;;;;;;10.87;7.60;;;;;;;21.08;24.70;98748.91;5000669;28;20208;-67
2021/03/31 11:04:14;;;;;;;7.43;6.53;;;;;;;20.77;25.50;98742.38;5001060;28;20209;-67
2021/03/31 11:06:42;;;;;;;10.30;6.87;;;;;;;21.08;26.46;98745.38;4999746;28;20220;-68
2021/03/31 11:09:09;;;;;;;9.43;8.03;;;;;;;20.89;26.68;98733.66;5002567;28;20587;-70
2021/03/31 11:11:39;;;;;;;9.70;7.20;;;;;;;21.30;27.23;98732.41;5002669;28;20212;-68
2021/03/31 11:14:06;;;;;;;8.33;6.93;;;;;;;21.29;25.97;98733.47;4999777;28;20213;-67
2021/03/31 11:16:34;;;;;;;9.50;7.70;;;;;;;21.34;26.69;98725.56;5002057;28;20206;-70
2021/03/31 11:19:10;;;;;;;10.87;7.37;;;;;;;21.30;25.70;98728.91;5002592;28;20208;-68
2021/03/31 11:27:08;;;;;;;7.33;6.70;;;;;;;21.94;25.13;98708.16;5002173;28;20203;-71
2021/03/31 11:29:35;;;;;;;11.80;5.97;;;;;;;22.16;24.91;98704.22;5001552;28;20211;-73
2021/03/31 11:32:04;;;;;;;8.33;6.70;;;;;;;21.86;24.35;98715.69;4998292;28;20322;-67
2021/03/31 11:34:31;;;;;;;6.80;6.10;;;;;;;21.89;23.69;98712.56;5003247;28;20204;-72
2021/03/31 11:36:58;;;;;;;7.47;5.80;;;;;;;21.87;24.10;98709.25;5002771;28;20219;-67
2021/03/31 11:39:26;;;;;;;6.33;5.73;;;;;;;21.96;24.35;98689.88;5000682;28;20208;-68
2021/03/31 11:41:53;;;;;;;8.93;6.43;;;;;;;22.28;24.71;98686.25;4998496;28;20208;-68
2021/03/31 11:44:20;;;;;;;8.23;6.30;;;;;;;22.84;23.92;98694.38;4997928;28;20231;-69
2021/03/31 11:46:47;;;;;;;6.00;5.50;;;;;;;22.74;23.61;98689.50;4998764;28;20635;-67
2021/03/31 11:49:14;;;;;;;7.53;6.47;;;;;;;22.59;23.00;98686.38;4995700;28;20218;-70
2021/03/31 11:51:42;;;;;;;10.60;5.70;;;;;;;22.70;23.53;98683.72;4998844;28;20221;-68
2021/03/31 11:54:09;;;;;;;6.67;5.53;;;;;;;23.83;21.74;98679.66;5000093;28;20742;-72
2021/03/31 11:56:37;;;;;;;5.33;4.80;;;;;;;24.26;18.50;98674.97;4998116;28;20435;-69
2021/03/31 11:59:04;;;;;;;6.20;4.63;;;;;;;23.80;19.74;98682.00;4999754;28;20593;-67
2021/03/31 12:01:31;;;;;;;6.50;4.70;;;;;;;23.59;20.14;98667.16;5001724;28;20241;-67
2021/03/31 12:03:58;;;;;;;7.13;6.43;;;;;;;23.35;20.14;98669.81;4998725;28;20530;-69